Time;durP1;ratioP1;P1;durP2;ratioP2;P2;SDS_P1;SDS_P2;PMS_P1;PMS_P2;Temp;Humidity;BMP_temperature;BMP_pressure;BME280_temperature;BME280_humidity;BME280_pressure;Samples;Min_cycle;Max_cycle;Signal;HPM_P1;HPM_P2
2023/03/04 00:00:57;;;;;;;16.23;8.65;;;;;;;2.96;99.68;92601.41;6214235;23;20017;-77
2023/03/04 00:03:23;;;;;;;19.73;8.63;;;;;;;2.91;99.37;92596.16;6214589;23;20087;-78
2023/03/04 00:05:48;;;;;;;18.30;8.32;;;;;;;2.90;98.88;92597.97;6189282;23;20013;-78
2023/03/04 00:08:16;;;;;;;17.65;8.80;;;;;;;2.90;99.65;92594.59;6216614;23;20005;-77
2023/03/04 00:10:42;;;;;;;20.20;9.02;;;;;;;2.88;99.58;92596.63;6218154;23;20016;-77
2023/03/04 00:13:10;;;;;;;18.02;9.30;;;;;;;2.88;99.50;92600.03;6191775;23;20021;-77
2023/03/04 00:15:35;;;;;;;16.05;9.00;;;;;;;2.86;99.03;92602.06;6218209;23;20007;-77
2023/03/04 00:18:09;;;;;;;27.92;9.25;;;;;;;2.86;99.51;92599.47;6217189;23;20014;-78
2023/03/04 00:20:34;;;;;;;16.77;9.15;;;;;;;2.87;99.59;92600.25;6216496;23;20012;-78
2023/03/04 00:23:00;;;;;;;17.58;8.57;;;;;;;2.88;99.05;92602.59;6215088;23;20051;-78
2023/03/04 00:25:25;;;;;;;22.92;9.35;;;;;;;2.88;98.70;92596.63;6215567;23;20014;-78
2023/03/04 00:27:51;;;;;;;15.73;8.50;;;;;;;2.88;98.97;92601.78;6190411;23;20022;-78
2023/03/04 00:30:18;;;;;;;15.80;8.40;;;;;;;2.87;98.96;92605.41;6215386;23;20507;-77
2023/03/04 00:32:43;;;;;;;15.27;8.15;;;;;;;2.86;99.48;92601.25;6216971;23;20008;-78
2023/03/04 00:35:09;;;;;;;17.48;8.50;;;;;;;2.84;99.36;92603.31;6217195;23;20012;-77
2023/03/04 00:37:45;;;;;;;18.40;9.48;;;;;;;2.84;99.98;92603.31;6190236;23;20023;-78
2023/03/04 00:40:11;;;;;;;18.20;9.65;;;;;;;2.81;100.00;92601.19;6215733;23;20016;-78
2023/03/04 00:42:41;;;;;;;14.48;9.05;;;;;;;2.81;99.58;92606.34;6190615;23;20005;-77
2023/03/04 00:45:08;;;;;;;17.70;9.43;;;;;;;2.79;100.00;92598.03;6189965;23;20471;-77
2023/03/04 00:47:43;;;;;;;15.52;8.25;;;;;;;2.80;100.00;92594.44;6217249;23;20095;-77
2023/03/04 00:50:09;;;;;;;15.30;8.80;;;;;;;2.79;100.00;92595.47;6215143;23;20012;-77
2023/03/04 00:52:35;;;;;;;18.73;8.38;;;;;;;2.78;99.93;92605.03;6189365;23;20050;-77
2023/03/04 00:55:01;;;;;;;13.63;8.40;;;;;;;2.77;99.92;92605.25;6217129;23;20329;-77
2023/03/04 00:57:26;;;;;;;17.13;8.38;;;;;;;2.73;100.00;92597.19;6190488;23;20016;-77
2023/03/04 01:00:16;;;;;;;23.35;8.80;;;;;;;2.71;100.00;92602.59;6217063;23;20031;-77
2023/03/04 01:02:41;;;;;;;14.57;7.43;;;;;;;2.68;100.00;92605.66;6215428;23;20034;-77
2023/03/04 01:05:08;;;;;;;16.48;8.07;;;;;;;2.67;100.00;92598.91;6215676;23;20044;-77
2023/03/04 01:07:34;;;;;;;16.05;8.55;;;;;;;2.66;99.87;92597.34;6216188;23;20073;-77
2023/03/04 01:10:00;;;;;;;16.15;8.80;;;;;;;2.64;99.92;92601.19;6215125;23;20012;-78
2023/03/04 01:12:35;;;;;;;14.48;8.38;;;;;;;2.66;99.79;92593.97;6217090;23;20457;-78
2023/03/04 01:15:01;;;;;;;19.35;8.18;;;;;;;2.64;100.00;92596.78;6216814;23;20008;-77
2023/03/04 01:17:27;;;;;;;17.52;8.32;;;;;;;2.64;100.00;92596.78;6190442;23;20016;-78
2023/03/04 01:20:07;;;;;;;21.98;8.75;;;;;;;2.62;99.95;92593.66;6215233;23;20345;-78
2023/03/04 01:22:34;;;;;;;18.40;9.30;;;;;;;2.61;99.99;92588.72;6215063;23;20036;-77
2023/03/04 01:25:00;;;;;;;16.63;9.52;;;;;;;2.59;100.00;92588.97;6215724;23;20000;-77
2023/03/04 01:27:25;;;;;;;18.08;10.07;;;;;;;2.59;100.00;92585.56;6215249;23;20016;-78
2023/03/04 01:29:51;;;;;;;18.63;9.85;;;;;;;2.57;100.00;92587.59;6216476;23;20013;-77
2023/03/04 01:32:19;;;;;;;20.58;9.75;;;;;;;2.45;100.00;92572.19;6215049;23;20015;-78
2023/03/04 01:34:46;;;;;;;19.30;9.68;;;;;;;2.52;100.00;92588.31;6214989;23;20008;-78
2023/03/04 01:37:12;;;;;;;19.85;10.93;;;;;;;2.48;100.00;92589.81;6189905;23;20035;-77
2023/03/04 01:39:38;;;;;;;21.20;11.80;;;;;;;2.46;100.00;92579.72;6215086;23;20012;-77
2023/03/04 01:42:04;;;;;;;21.50;10.68;;;;;;;2.45;100.00;92582.53;6214310;23;20009;-78
2023/03/04 01:44:30;;;;;;;21.15;11.30;;;;;;;2.43;100.00;92579.38;6214562;23;20023;-77
2023/03/04 01:47:09;;;;;;;22.48;11.30;;;;;;;2.45;100.00;92578.13;6189895;23;20013;-77
2023/03/04 01:49:35;;;;;;;23.38;11.18;;;;;;;2.45;100.00;92580.72;6214782;23;20009;-78
2023/03/04 01:52:00;;;;;;;20.52;11.73;;;;;;;2.45;100.00;92577.34;6216671;23;20467;-77
2023/03/04 01:54:31;;;;;;;21.17;11.20;;;;;;;2.43;100.00;92566.47;6214647;23;20024;-78
2023/03/04 01:56:59;;;;;;;21.85;11.50;;;;;;;2.44;100.00;92570.63;6214529;23;20023;-78
2023/03/04 01:59:29;;;;;;;19.35;11.25;;;;;;;2.44;100.00;92565.47;6214900;23;20023;-78
2023/03/04 02:01:58;;;;;;;22.65;11.20;;;;;;;2.46;100.00;92571.19;6216880;23;20009;-78
2023/03/04 02:04:27;;;;;;;18.35;10.23;;;;;;;2.40;100.00;92554.78;6215772;23;20490;-78
2023/03/04 02:07:05;;;;;;;19.35;10.60;;;;;;;2.43;100.00;92559.50;6192157;23;20432;-78
2023/03/04 02:09:32;;;;;;;19.65;10.00;;;;;;;2.41;100.00;92550.41;6216851;23;20016;-78
2023/03/04 02:11:59;;;;;;;20.55;9.68;;;;;;;2.39;100.00;92550.66;6217975;23;20004;-78
2023/03/04 02:14:25;;;;;;;18.08;9.00;;;;;;;2.41;100.00;92550.41;6216412;23;20062;-78
2023/03/04 02:17:01;;;;;;;23.10;10.13;;;;;;;2.41;100.00;92545.25;6216409;23;20044;-77
2023/03/04 02:19:53;;;;;;;17.70;9.95;;;;;;;2.39;100.00;92536.97;6216720;23;20101;-78
2023/03/04 02:22:19;;;;;;;20.25;9.40;;;;;;;2.35;100.00;92541.03;6216068;23;20087;-78
2023/03/04 02:24:51;;;;;;;21.13;10.23;;;;;;;2.36;100.00;92547.75;6191480;23;20086;-78
2023/03/04 02:27:18;;;;;;;20.13;10.52;;;;;;;2.33;100.00;92532.72;6216723;23;20012;-77
2023/03/04 02:29:43;;;;;;;23.48;10.82;;;;;;;2.34;100.00;92534.28;6191492;23;20004;-77
2023/03/04 02:32:12;;;;;;;19.95;9.68;;;;;;;2.35;100.00;92525.53;6216476;23;20078;-77
2023/03/04 02:34:48;;;;;;;19.83;10.23;;;;;;;2.36;100.00;92527.84;6216704;23;20012;-78
2023/03/04 02:37:15;;;;;;;24.95;10.25;;;;;;;2.37;100.00;92529.44;6216714;23;20349;-77
2023/03/04 02:39:44;;;;;;;22.02;10.48;;;;;;;2.37;100.00;92528.66;6216512;23;20008;-78
2023/03/04 02:42:19;;;;;;;20.60;10.38;;;;;;;2.35;100.00;92523.72;6167007;23;20024;-78
2023/03/04 02:44:48;;;;;;;22.90;10.63;;;;;;;2.36;100.00;92527.09;6166398;23;20019;-77
2023/03/04 02:47:19;;;;;;;20.20;10.50;;;;;;;2.36;100.00;92532.25;6215257;23;20067;-77
2023/03/04 02:49:59;;;;;;;20.80;10.70;;;;;;;2.34;100.00;92526.53;6214995;23;20066;-77
2023/03/04 02:52:25;;;;;;;21.25;10.98;;;;;;;2.31;100.00;92519.25;6216756;23;20096;-77
2023/03/04 02:54:51;;;;;;;24.80;10.75;;;;;;;2.32;100.00;92520.81;6189908;23;20103;-77
2023/03/04 02:57:17;;;;;;;20.77;11.10;;;;;;;2.33;100.00;92524.97;6165175;23;20039;-77
2023/03/04 02:59:46;;;;;;;25.15;11.20;;;;;;;2.31;100.00;92519.25;6189797;23;20051;-77
2023/03/04 03:02:16;;;;;;;20.55;11.60;;;;;;;2.32;100.00;92520.81;6189837;23;20016;-77
2023/03/04 03:04:52;;;;;;;23.83;11.50;;;;;;;2.28;100.00;92521.28;6216299;23;20016;-77
2023/03/04 03:07:19;;;;;;;23.45;11.20;;;;;;;2.28;100.00;92515.34;6189497;23;20016;-77
2023/03/04 03:09:48;;;;;;;27.15;11.35;;;;;;;2.26;100.00;92513.00;6164508;23;20012;-77
2023/03/04 03:12:13;;;;;;;23.55;10.88;;;;;;;2.27;100.00;92514.56;6164825;23;20009;-77
2023/03/04 03:14:39;;;;;;;20.30;10.88;;;;;;;2.25;100.00;92518.38;6216170;23;20468;-77
2023/03/04 03:17:07;;;;;;;20.58;10.63;;;;;;;2.20;100.00;92506.16;6189401;23;20008;-77
2023/03/04 03:19:33;;;;;;;21.15;11.05;;;;;;;2.21;100.00;92505.16;6189674;23;20017;-77
2023/03/04 03:22:01;;;;;;;29.98;11.00;;;;;;;2.21;100.00;92509.56;6165335;23;20395;-77
2023/03/04 03:24:39;;;;;;;23.40;10.63;;;;;;;2.21;100.00;92510.34;6215909;23;20015;-77
2023/03/04 03:27:04;;;;;;;21.35;10.77;;;;;;;2.19;100.00;92506.41;6164707;23;20074;-77
2023/03/04 03:29:30;;;;;;;22.75;10.40;;;;;;;2.17;100.00;92503.28;6164390;23;20095;-77
2023/03/04 03:31:57;;;;;;;23.98;10.88;;;;;;;2.17;100.00;92511.81;6164759;23;20387;-77
2023/03/04 03:34:23;;;;;;;20.05;10.02;;;;;;;2.15;100.00;92506.09;6189583;23;20040;-77
2023/03/04 03:36:49;;;;;;;27.90;11.82;;;;;;;2.10;100.00;92503.44;6189277;23;20027;-77
2023/03/04 03:39:15;;;;;;;19.58;10.75;;;;;;;2.10;100.00;92503.44;6189374;23;20017;-77
2023/03/04 03:41:41;;;;;;;27.00;11.13;;;;;;;2.07;100.00;92502.09;6189229;23;20448;-77
2023/03/04 03:44:07;;;;;;;22.67;11.27;;;;;;;2.05;100.00;92496.38;6216205;23;20059;-77
2023/03/04 03:46:44;;;;;;;20.15;10.80;;;;;;;2.06;100.00;92499.75;6164748;23;20025;-77
2023/03/04 03:49:09;;;;;;;23.50;11.32;;;;;;;2.06;100.00;92497.16;6165252;23;20009;-77
2023/03/04 03:51:35;;;;;;;21.23;10.68;;;;;;;2.05;100.00;92495.63;6165261;23;20012;-77
2023/03/04 03:54:00;;;;;;;20.02;11.23;;;;;;;2.03;100.00;92490.66;6216230;23;20016;-77
2023/03/04 03:56:31;;;;;;;20.63;10.05;;;;;;;2.03;100.00;92501.00;6216042;23;20015;-77
2023/03/04 03:58:57;;;;;;;23.17;10.38;;;;;;;2.02;100.00;92496.84;6216498;23;20522;-77
2023/03/04 04:01:22;;;;;;;19.08;10.82;;;;;;;2.02;100.00;92490.91;6190132;23;20004;-77
2023/03/04 04:03:52;;;;;;;23.10;11.10;;;;;;;2.00;100.00;92485.97;6215482;23;20039;-77
2023/03/04 04:06:18;;;;;;;24.52;12.73;;;;;;;2.03;100.00;92495.06;6189309;23;20055;-77
2023/03/04 04:08:43;;;;;;;22.40;11.45;;;;;;;2.02;100.00;92485.72;6215875;23;20392;-77
2023/03/04 04:11:11;;;;;;;25.77;12.23;;;;;;;1.98;100.00;92484.63;6188863;23;20016;-77
2023/03/04 04:13:37;;;;;;;27.58;12.80;;;;;;;1.97;100.00;92490.81;6189219;23;20079;-77
2023/03/04 04:16:03;;;;;;;25.38;11.75;;;;;;;1.98;100.00;92485.44;6188978;23;20031;-77
2023/03/04 04:18:30;;;;;;;24.45;11.80;;;;;;;1.94;100.00;92499.03;6215692;23;20016;-77
2023/03/04 04:20:56;;;;;;;22.73;10.13;;;;;;;1.90;100.00;92496.13;6215664;23;20027;-77
2023/03/04 04:23:22;;;;;;;21.92;10.40;;;;;;;1.87;100.00;92494.78;6215546;23;20005;-77
2023/03/04 04:25:58;;;;;;;24.60;10.68;;;;;;;1.83;100.00;92488.53;6215333;23;20035;-77
2023/03/04 04:28:24;;;;;;;22.98;11.00;;;;;;;1.82;100.00;92488.75;6215523;23;20032;-77
2023/03/04 04:30:50;;;;;;;23.20;11.07;;;;;;;1.78;100.00;92483.28;6215443;23;20050;-78
2023/03/04 04:33:21;;;;;;;21.90;10.65;;;;;;;1.78;100.00;92485.88;6188914;23;20048;-77
2023/03/04 04:35:47;;;;;;;20.33;10.63;;;;;;;1.77;100.00;92486.88;6189265;23;20070;-78
2023/03/04 04:38:12;;;;;;;19.02;9.90;;;;;;;1.78;100.00;92488.44;6164582;23;20004;-78
2023/03/04 04:40:41;;;;;;;22.10;10.50;;;;;;;1.71;100.00;92472.28;6215974;23;20016;-78
2023/03/04 04:43:07;;;;;;;19.98;10.63;;;;;;;1.77;100.00;92484.28;6216073;23;20405;-78
2023/03/04 04:45:33;;;;;;;19.48;11.15;;;;;;;1.76;100.00;92487.91;6189161;23;20024;-77
2023/03/04 04:47:59;;;;;;;20.20;10.40;;;;;;;1.74;100.00;92484.75;6189741;23;20396;-77
2023/03/04 04:50:25;;;;;;;26.98;11.50;;;;;;;1.73;100.00;92488.34;6189980;23;20436;-77
2023/03/04 04:52:50;;;;;;;21.83;10.25;;;;;;;1.69;100.00;92487.25;6193816;23;20025;-77
2023/03/04 04:55:17;;;;;;;20.63;10.40;;;;;;;1.66;100.00;92487.69;6214896;23;20028;-77
2023/03/04 04:57:42;;;;;;;20.52;10.05;;;;;;;1.65;100.00;92486.16;6164408;23;20017;-78
2023/03/04 05:00:09;;;;;;;27.30;9.77;;;;;;;1.65;100.00;92486.16;6216223;23;20460;-77
2023/03/04 05:02:37;;;;;;;20.33;10.30;;;;;;;1.62;100.00;92478.84;6216317;23;20441;-78
2023/03/04 05:05:05;;;;;;;21.92;10.07;;;;;;;1.63;100.00;92485.59;6214633;23;20067;-78
2023/03/04 05:07:31;;;;;;;19.33;10.80;;;;;;;1.57;100.00;92479.53;6216006;23;20027;-77
2023/03/04 05:09:58;;;;;;;17.05;9.05;;;;;;;1.57;100.00;92483.94;6214251;23;20016;-78
2023/03/04 05:12:23;;;;;;;18.80;9.05;;;;;;;1.57;100.00;92476.97;6214554;23;20032;-78
2023/03/04 05:14:49;;;;;;;19.02;9.45;;;;;;;1.55;100.00;92473.06;6214375;23;20063;-78
2023/03/04 05:17:20;;;;;;;20.17;10.07;;;;;;;1.53;100.00;92478.47;6215933;23;20349;-78
2023/03/04 05:19:46;;;;;;;17.00;8.95;;;;;;;1.52;100.00;92465.78;6214261;23;20360;-77
2023/03/04 05:22:11;;;;;;;17.30;9.35;;;;;;;1.50;100.00;92467.81;6213864;23;20001;-77
2023/03/04 05:24:38;;;;;;;20.25;8.55;;;;;;;1.49;100.00;92471.38;6213985;23;20016;-77
2023/03/04 05:27:03;;;;;;;19.35;9.07;;;;;;;1.45;100.00;92464.13;6215378;23;20067;-77
2023/03/04 05:29:29;;;;;;;19.27;9.50;;;;;;;1.43;100.00;92473.09;6188246;23;20005;-77
2023/03/04 05:31:56;;;;;;;17.83;8.45;;;;;;;1.40;100.00;92469.19;6213774;23;20016;-77
2023/03/04 05:34:22;;;;;;;15.88;8.68;;;;;;;1.41;100.00;92470.75;6215260;23;20087;-77
2023/03/04 05:36:47;;;;;;;18.17;8.48;;;;;;;1.40;100.00;92474.34;6188711;23;20154;-77
2023/03/04 05:39:16;;;;;;;15.32;7.47;;;;;;;1.39;100.00;92472.78;6214211;23;20095;-77
2023/03/04 05:41:42;;;;;;;13.50;7.35;;;;;;;1.37;100.00;92469.63;6215571;23;20091;-78
2023/03/04 05:44:07;;;;;;;14.43;6.80;;;;;;;1.35;100.00;92469.09;6217438;23;20055;-77
2023/03/04 05:46:44;;;;;;;16.63;8.35;;;;;;;1.33;100.00;92473.72;6216157;23;20127;-77
2023/03/04 05:49:09;;;;;;;14.73;7.35;;;;;;;1.31;100.00;92475.72;6217382;23;20016;-77
2023/03/04 05:51:40;;;;;;;14.57;7.20;;;;;;;1.28;100.00;92471.00;6215781;23;20009;-77
2023/03/04 05:54:08;;;;;;;19.27;7.25;;;;;;;1.29;100.00;92472.59;6215895;23;20025;-77
2023/03/04 05:56:33;;;;;;;18.52;7.05;;;;;;;1.19;100.00;92462.06;6216936;23;20024;-77
2023/03/04 05:58:59;;;;;;;13.68;7.43;;;;;;;1.27;100.00;92469.47;6217805;23;20016;-77
2023/03/04 06:01:29;;;;;;;18.42;7.57;;;;;;;1.28;100.00;92470.25;6216023;23;20001;-78
2023/03/04 06:03:55;;;;;;;16.33;7.90;;;;;;;1.32;100.00;92476.50;6217544;23;20352;-78
2023/03/04 06:06:20;;;;;;;13.25;7.05;;;;;;;1.34;100.00;92482.22;6217261;23;20017;-77
2023/03/04 06:08:48;;;;;;;15.02;8.30;;;;;;;1.35;100.00;92482.00;6217521;23;20074;-77
2023/03/04 06:11:13;;;;;;;12.90;7.00;;;;;;;1.39;100.00;92483.09;6191412;23;20017;-77
2023/03/04 06:13:39;;;;;;;16.13;7.32;;;;;;;1.44;100.00;92480.63;6219185;23;20013;-77
2023/03/04 06:16:05;;;;;;;12.77;6.63;;;;;;;1.86;100.00;92485.47;6219319;23;20355;-77
2023/03/04 06:18:30;;;;;;;13.82;7.10;;;;;;;2.36;100.00;92483.16;6217806;23;20027;-77
2023/03/04 06:20:58;;;;;;;13.50;7.15;;;;;;;2.88;98.64;92485.44;6213003;23;20039;-77
2023/03/04 06:23:24;;;;;;;13.98;6.82;;;;;;;3.50;94.52;92482.56;6212894;23;20012;-78
2023/03/04 06:25:55;;;;;;;17.15;7.13;;;;;;;4.18;89.40;92485.56;6188485;23;20012;-78
2023/03/04 06:28:22;;;;;;;11.10;6.13;;;;;;;4.85;83.74;92493.06;6212414;23;20024;-78
2023/03/04 06:30:47;;;;;;;11.40;6.82;;;;;;;5.45;79.39;92491.81;6215265;23;20441;-80
2023/03/04 06:33:13;;;;;;;12.00;6.55;;;;;;;5.91;75.38;92473.75;6220406;23;20017;-80
2023/03/04 06:35:39;;;;;;;14.60;6.60;;;;;;;6.57;73.50;92490.44;6218646;23;20051;-79
2023/03/04 06:38:04;;;;;;;12.90;6.93;;;;;;;7.20;69.63;92488.28;6193334;23;20050;-78
2023/03/04 06:40:30;;;;;;;13.13;7.43;;;;;;;7.78;66.74;92485.19;6218265;23;20031;-76
2023/03/04 06:42:55;;;;;;;12.63;6.35;;;;;;;8.28;65.63;92493.00;6214796;23;20024;-78
2023/03/04 06:45:21;;;;;;;13.73;6.72;;;;;;;8.80;63.06;92488.97;6216274;23;20003;-77
2023/03/04 06:47:46;;;;;;;12.68;6.07;;;;;;;9.34;62.00;92494.97;6214370;23;20066;-78
2023/03/04 06:50:12;;;;;;;13.32;6.90;;;;;;;9.83;58.41;92487.91;6214588;23;19997;-78
2023/03/04 06:52:38;;;;;;;13.20;6.63;;;;;;;10.17;58.08;92496.31;6212283;23;20013;-77
2023/03/04 06:55:05;;;;;;;11.63;6.45;;;;;;;10.88;55.69;92496.38;6188544;23;20322;-77
2023/03/04 06:57:31;;;;;;;13.15;6.78;;;;;;;11.34;54.75;92498.19;6212626;23;20086;-78
2023/03/04 06:59:56;;;;;;;12.55;7.72;;;;;;;11.85;52.36;92502.47;6214656;23;20425;-78
2023/03/04 07:02:22;;;;;;;14.25;7.53;;;;;;;12.05;52.40;92497.91;6188301;23;20013;-78
2023/03/04 07:04:47;;;;;;;13.35;7.10;;;;;;;12.68;52.26;92497.03;6193503;23;20004;-79
2023/03/04 07:07:13;;;;;;;16.05;7.40;;;;;;;13.22;49.96;92501.56;6220989;23;20012;-81
2023/03/04 07:09:39;;;;;;;17.98;7.93;;;;;;;13.65;49.42;92506.25;6194044;23;20004;-78
2023/03/04 07:12:05;;;;;;;15.55;7.70;;;;;;;14.27;46.93;92505.31;6193125;23;20087;-78
2023/03/04 07:14:30;;;;;;;13.32;8.00;;;;;;;14.57;46.37;92498.41;6193344;23;20040;-78
2023/03/04 07:16:56;;;;;;;12.30;8.02;;;;;;;14.91;44.66;92499.50;6191579;23;20329;-79
2023/03/04 07:19:22;;;;;;;14.75;7.97;;;;;;;15.16;43.90;92493.38;6215771;23;20012;-79
2023/03/04 07:21:49;;;;;;;11.88;7.45;;;;;;;15.27;43.03;92501.75;6216612;23;20083;-79
2023/03/04 07:24:15;;;;;;;11.90;7.32;;;;;;;15.80;42.52;92511.03;6216910;23;20048;-80
2023/03/04 07:26:41;;;;;;;10.88;7.28;;;;;;;16.16;43.39;92503.72;6216590;23;20016;-80
2023/03/04 07:29:07;;;;;;;11.68;7.88;;;;;;;16.71;41.29;92502.75;6218190;23;20306;-81
2023/03/04 07:31:34;;;;;;;10.77;7.60;;;;;;;17.56;38.92;92492.78;6213848;23;20097;-81
2023/03/04 07:34:09;;;;;;;14.80;8.57;;;;;;;17.58;37.05;92512.50;6188021;23;20024;-77
2023/03/04 07:36:35;;;;;;;14.05;7.63;;;;;;;17.10;39.13;92495.44;6212567;23;20013;-77
2023/03/04 07:39:03;;;;;;;11.07;7.53;;;;;;;16.31;39.87;92500.53;6215394;23;20001;-77
2023/03/04 07:41:29;;;;;;;13.00;7.88;;;;;;;16.42;39.15;92499.06;6189756;23;20072;-77
2023/03/04 07:43:59;;;;;;;10.90;7.20;;;;;;;16.27;40.44;92504.91;6212881;23;20013;-79
2023/03/04 07:46:25;;;;;;;14.05;8.00;;;;;;;15.10;42.74;92507.81;6213184;23;20013;-77
2023/03/04 07:48:51;;;;;;;11.77;7.55;;;;;;;14.20;44.19;92511.03;6188211;23;20070;-76
2023/03/04 07:51:19;;;;;;;12.75;7.88;;;;;;;13.51;48.51;92504.50;6160251;23;20027;-77
2023/03/04 07:53:48;;;;;;;10.95;7.53;;;;;;;13.61;47.14;92498.19;6212874;23;20437;-77
2023/03/04 07:56:17;;;;;;;15.07;8.18;;;;;;;12.85;48.48;92504.25;6190617;23;20008;-79
2023/03/04 07:58:42;;;;;;;12.10;7.50;;;;;;;12.82;49.20;92496.97;6218888;23;20532;-78
2023/03/04 08:01:14;;;;;;;12.52;7.80;;;;;;;13.27;47.95;92504.06;6212510;23;20013;-77
2023/03/04 08:03:40;;;;;;;11.60;6.73;;;;;;;13.11;47.23;92501.81;6210442;23;20044;-78
2023/03/04 08:06:07;;;;;;;12.95;6.97;;;;;;;12.96;49.07;92504.78;6190956;23;20250;-77
2023/03/04 08:08:34;;;;;;;15.93;7.20;;;;;;;12.73;48.95;92503.25;6217239;23;20013;-78
2023/03/04 08:11:04;;;;;;;15.75;7.15;;;;;;;12.69;49.14;92498.59;6217339;23;20008;-78
2023/03/04 08:13:30;;;;;;;14.73;7.55;;;;;;;12.27;49.01;92500.59;6220207;23;20009;-77
2023/03/04 08:15:56;;;;;;;17.25;7.75;;;;;;;11.73;50.00;92496.94;6190244;23;20031;-77
2023/03/04 08:18:22;;;;;;;11.52;7.47;;;;;;;11.02;53.42;92502.41;6213077;23;20013;-78
2023/03/04 08:20:48;;;;;;;12.40;7.18;;;;;;;10.71;54.38;92502.13;6215032;23;20025;-78
2023/03/04 08:23:13;;;;;;;14.25;6.60;;;;;;;11.33;52.25;92496.63;6190206;23;20012;-78
2023/03/04 08:25:40;;;;;;;12.98;7.45;;;;;;;10.88;53.08;92493.75;6218292;23;20115;-78
2023/03/04 08:28:07;;;;;;;14.18;7.20;;;;;;;11.33;53.31;92494.03;6216090;23;20016;-78
2023/03/04 08:30:33;;;;;;;18.10;6.88;;;;;;;11.56;51.77;92488.88;6190544;23;20013;-78
2023/03/04 08:33:00;;;;;;;13.55;7.22;;;;;;;11.63;51.03;92486.66;6191374;23;20032;-78
2023/03/04 08:35:26;;;;;;;7.43;4.53;;;;;;;11.36;51.13;92488.19;6214722;23;20063;-78
2023/03/04 08:37:52;;;;;;;12.07;7.35;;;;;;;11.14;52.41;92491.47;6211880;23;20020;-77
2023/03/04 08:40:18;;;;;;;17.52;7.65;;;;;;;11.35;51.11;92491.88;6138254;23;20020;-77
2023/03/04 08:42:43;;;;;;;10.85;5.00;;;;;;;10.82;51.71;92493.03;6212332;23;20055;-77
2023/03/04 08:45:10;;;;;;;17.00;9.50;;;;;;;10.36;53.71;92487.75;6187548;23;20103;-77
2023/03/04 08:47:37;;;;;;;13.25;8.07;;;;;;;10.67;55.00;92489.88;6212366;23;20031;-77
2023/03/04 08:50:04;;;;;;;11.20;6.05;;;;;;;11.17;53.96;92485.66;6214591;23;20428;-77
2023/03/04 08:52:30;;;;;;;16.70;7.85;;;;;;;11.02;52.91;92485.91;6213780;23;20095;-77
2023/03/04 08:54:56;;;;;;;11.95;8.07;;;;;;;11.54;52.30;92483.16;6186346;23;20059;-77
2023/03/04 08:57:22;;;;;;;12.88;7.45;;;;;;;11.95;49.98;92482.38;6212229;23;20005;-77
2023/03/04 08:59:47;;;;;;;15.80;8.02;;;;;;;11.94;48.91;92480.84;6213530;23;20023;-77
2023/03/04 09:02:14;;;;;;;11.13;6.43;;;;;;;12.06;51.03;92483.72;6212569;23;20730;-78
2023/03/04 09:04:40;;;;;;;12.20;6.32;;;;;;;12.13;49.12;92484.09;6221875;23;20024;-78
2023/03/04 09:07:07;;;;;;;13.68;7.65;;;;;;;11.86;50.41;92479.63;6217584;23;20016;-77
2023/03/04 09:09:33;;;;;;;11.77;6.15;;;;;;;11.93;48.30;92484.50;6189871;23;20012;-76
2023/03/04 09:11:59;;;;;;;13.70;7.50;;;;;;;11.90;48.65;92482.47;6217128;23;20036;-77
2023/03/04 09:14:25;;;;;;;12.93;7.07;;;;;;;12.10;47.69;92476.81;6211928;23;20016;-77
2023/03/04 09:16:50;;;;;;;14.93;7.30;;;;;;;12.10;47.86;92468.94;6213513;23;20020;-77
2023/03/04 09:19:16;;;;;;;13.60;7.38;;;;;;;12.34;47.02;92475.75;6214698;23;20016;-77
2023/03/04 09:21:42;;;;;;;14.60;7.53;;;;;;;12.22;48.06;92471.81;6212740;23;20487;-77
2023/03/04 09:24:07;;;;;;;15.27;7.90;;;;;;;12.27;48.41;92457.78;6210112;23;20380;-78
2023/03/04 09:26:34;;;;;;;13.88;7.80;;;;;;;12.44;46.96;92467.66;6217389;23;20428;-79
2023/03/04 09:29:00;;;;;;;16.27;7.20;;;;;;;12.24;47.99;92461.78;6214548;23;20063;-77
2023/03/04 09:31:28;;;;;;;10.48;6.53;;;;;;;12.17;49.83;92458.81;6213800;23;20044;-78
2023/03/04 09:33:56;;;;;;;9.25;5.20;;;;;;;11.82;50.87;92457.69;6212687;23;20460;-79
2023/03/04 09:36:23;;;;;;;15.07;8.20;;;;;;;12.00;51.77;92456.81;6214509;23;20008;-77
2023/03/04 09:38:49;;;;;;;15.25;8.02;;;;;;;11.86;49.99;92461.28;6190192;23;20009;-77
2023/03/04 09:41:23;;;;;;;16.52;7.60;;;;;;;12.04;50.85;92459.63;6214424;23;20020;-78
2023/03/04 09:43:51;;;;;;;17.60;8.52;;;;;;;11.76;52.28;92459.63;6217096;23;20043;-77
2023/03/04 09:46:39;;;;;;;15.70;7.20;;;;;;;11.70;49.43;92458.19;6217941;23;20039;-77
2023/03/04 09:49:05;;;;;;;7.53;4.50;;;;;;;12.08;51.13;92450.84;6217314;23;20441;-77
2023/03/04 09:51:46;;;;;;;15.82;8.30;;;;;;;11.86;49.23;92459.41;6213721;23;20020;-78
2023/03/04 09:54:51;;;;;;;16.42;7.88;;;;;;;11.77;51.86;92455.94;6218197;23;20068;-78
2023/03/04 09:57:41;;;;;;;11.55;5.65;;;;;;;12.39;50.26;92454.66;6214462;23;20111;-78
2023/03/04 10:00:43;;;;;;;14.88;7.78;;;;;;;12.81;48.72;92450.00;6216398;23;20009;-79
2023/03/04 10:03:09;;;;;;;12.02;6.78;;;;;;;12.79;49.66;92445.06;6204014;23;20029;-79
2023/03/04 10:05:50;;;;;;;11.02;5.78;;;;;;;12.81;49.66;92445.53;6192721;23;20013;-78
2023/03/04 10:08:34;;;;;;;10.65;6.65;;;;;;;12.92;47.72;92451.28;6217340;23;20016;-79
2023/03/04 10:11:02;;;;;;;9.57;5.63;;;;;;;12.40;51.19;92445.72;6219033;23;20005;-79
2023/03/04 10:13:51;;;;;;;18.20;5.53;;;;;;;11.84;50.34;92445.03;6215752;23;20031;-79
2023/03/04 10:16:21;;;;;;;12.52;6.10;;;;;;;11.22;52.85;92441.00;6213275;23;20013;-79
2023/03/04 10:18:56;;;;;;;13.82;6.97;;;;;;;11.09;51.98;92441.00;6216653;23;20404;-80
2023/03/04 10:21:30;;;;;;;13.10;7.50;;;;;;;11.11;51.98;92446.72;6216167;23;20016;-78
2023/03/04 10:23:56;;;;;;;10.95;7.03;;;;;;;11.04;52.91;92444.50;6220752;23;20079;-79
2023/03/04 10:26:27;;;;;;;11.10;6.60;;;;;;;10.89;53.99;92442.13;6198458;23;20116;-79
2023/03/04 10:28:53;;;;;;;15.00;7.72;;;;;;;10.82;52.77;92448.53;6190768;23;20094;-76
2023/03/04 10:31:35;;;;;;;15.18;7.20;;;;;;;10.69;53.55;92443.25;6225384;23;20396;-79
2023/03/04 10:34:03;;;;;;;11.48;6.95;;;;;;;10.21;54.23;92444.22;6202097;23;20009;-78
2023/03/04 10:36:28;;;;;;;13.05;6.97;;;;;;;10.56;54.58;92445.56;6173470;23;20247;-78
2023/03/04 10:39:17;;;;;;;8.23;5.03;;;;;;;10.66;51.79;92444.59;6224915;23;20013;-78
2023/03/04 10:41:52;;;;;;;8.57;4.72;;;;;;;10.32;53.39;92435.19;6223083;23;20089;-77
2023/03/04 10:44:18;;;;;;;11.30;6.18;;;;;;;10.44;54.48;92432.13;6223631;23;20008;-77
2023/03/04 10:46:46;;;;;;;10.70;5.50;;;;;;;10.86;54.21;92425.16;6226490;23;20048;-78
2023/03/04 10:49:15;;;;;;;6.45;4.32;;;;;;;10.94;52.07;92424.50;6199424;23;20348;-77
2023/03/04 10:51:44;;;;;;;9.98;4.95;;;;;;;10.52;52.68;92434.09;6221913;23;20019;-79
2023/03/04 10:54:29;;;;;;;8.95;5.60;;;;;;;10.52;53.88;92426.25;6195868;23;20016;-79
2023/03/04 10:57:14;;;;;;;13.38;7.20;;;;;;;10.61;53.40;92421.91;6186975;23;20618;-77
2023/03/04 10:59:55;;;;;;;10.93;6.88;;;;;;;10.82;52.63;92424.19;6215753;23;20005;-79
2023/03/04 11:02:27;;;;;;;13.15;6.65;;;;;;;11.34;51.82;92421.41;6214448;23;20020;-80
2023/03/04 11:05:06;;;;;;;10.95;6.45;;;;;;;11.56;49.91;92418.09;6188997;23;20022;-78
2023/03/04 11:07:35;;;;;;;11.65;7.38;;;;;;;11.67;49.80;92422.84;6213655;23;20016;-79
2023/03/04 11:10:39;;;;;;;11.77;6.47;;;;;;;11.87;49.51;92415.63;6191766;23;20433;-78
2023/03/04 11:13:10;;;;;;;14.23;7.32;;;;;;;11.40;50.00;92426.25;6195695;23;20017;-80
2023/03/04 11:15:54;;;;;;;11.40;7.00;;;;;;;12.34;51.00;92415.38;6215611;23;20016;-80
2023/03/04 11:18:35;;;;;;;13.70;6.90;;;;;;;12.12;48.86;92409.06;6216617;23;20009;-79
2023/03/04 11:21:01;;;;;;;12.30;5.78;;;;;;;12.02;49.11;92401.41;6215082;23;20012;-78
2023/03/04 11:23:43;;;;;;;13.50;7.03;;;;;;;11.97;49.52;92402.31;6217917;23;20012;-78
2023/03/04 11:26:15;;;;;;;13.00;7.20;;;;;;;12.34;49.47;92402.28;6195585;23;20039;-78
2023/03/04 11:29:17;;;;;;;12.05;5.88;;;;;;;12.66;46.99;92402.03;6220777;23;20009;-78
2023/03/04 11:32:10;;;;;;;12.10;6.43;;;;;;;12.15;48.84;92387.47;6218281;23;20084;-79